Latest Weather Observations for Renmark Airport

IDS60801

Issued at 11:21 am CST Thursday 1 October 2020 (issued every 10 minutes, with the page automatically refreshed every 10 minutes)

About weather observations | Map of weather stations | Latest weather observations for SA | Other Formats
Station Details ID: 024048 Name: RENMARK AERO Lat: -34.20 Lon: 140.68 Height: 31.5 m
Data from the previous 72 hours. | See also: Recent months at Renmark Airport
Date/Time
CST
Temp
°C
App
Temp
°C
Dew
Point
°C
Rel
Hum
%
Delta-T
°C
Wind Press
QNH
hPa
Press
MSL
hPa
Rain since
9am
mm
Dir  Spd
km/h
Gust
km/h
Spd
kts
Gust
kts
01/11:00am 18.7 15.7 9.2 54 5.0 NNW 15 26 8 14 1019.0 1018.9 0.0
01/10:30am 17.7 14.9 8.6 55 4.7 NNW 13 28 7 15 1019.4 1019.3 0.0
01/10:00am 16.8 14.6 8.0 56 4.5 WNW 9 15 5 8 1019.8 1019.7 0.0
01/09:30am 15.8 13.8 8.8 63 3.6 NE 9 15 5 8 1019.9 1019.8 0.0
01/09:00am 14.7 13.2 9.1 69 2.9 N 7 13 4 7 1020.1 1020.1 0.2
01/08:30am 14.0 12.5 8.4 69 2.8 E 6 9 3 5 1020.0 1020.0 0.2
01/08:00am 11.9 12.3 11.1 95 0.4 CALM 0 0 0 0 1019.9 1019.9 0.2
01/07:30am 11.1 11.4 10.8 98 0.2 CALM 0 0 0 0 1019.7 1019.7 0.2
01/07:00am 9.5 9.0 9.2 98 0.1 WSW 2 6 1 3 1019.3 1019.3 0.2
01/06:30am 7.4 5.6 7.0 97 0.2 WSW 6 7 3 4 1019.0 1019.0 0.2
01/06:26am 7.1 5.0 6.7 97 0.2 W 7 7 4 4 1018.9 1018.9 0.2
01/06:07am 6.4 4.3 6.0 97 0.2 WSW 6 7 3 4 1018.6 1018.5 0.2
01/06:04am 6.3 4.2 5.9 97 0.2 WSW 6 7 3 4 1018.6 1018.5 0.2
01/06:00am 6.4 4.2 6.0 97 0.2 WSW 7 9 4 5 1018.5 1018.4 0.2
01/05:30am 6.8 4.8 6.2 96 0.3 WSW 6 6 3 3 1017.6 1017.5 0.2
01/05:00am 7.7 5.9 7.1 96 0.3 W 6 6 3 3 1017.2 1017.1 0.2
01/04:30am 8.5 6.9 7.9 96 0.3 W 6 7 3 4 1017.0 1016.9 0.0
01/04:00am 8.6 6.8 8.0 96 0.3 W 7 9 4 5 1016.7 1016.6 0.0
01/03:51am 8.8 7.1 8.2 96 0.3 W 7 9 4 5 1016.6 1016.5 0.0
01/03:39am 9.1 7.4 8.5 96 0.3 W 7 9 4 5 1016.6 1016.5 0.0
01/03:30am 9.3 7.7 8.7 96 0.3 WSW 7 9 4 5 1016.5 1016.4 0.0
01/03:10am 10.0 8.8 9.4 96 0.3 WSW 6 7 3 4 1016.5 1016.4 0.0
01/03:00am 10.3 9.1 9.7 96 0.3 WSW 6 7 3 4 1016.5 1016.4 0.0
01/02:30am 10.7 9.4 10.1 96 0.3 W 7 9 4 5 1016.4 1016.3 0.0
01/02:22am 11.0 9.8 10.4 96 0.3 W 7 9 4 5 1016.3 1016.2 0.0
01/02:00am 11.4 10.3 10.8 96 0.3 WSW 7 11 4 6 1016.2 1016.1 0.0
01/01:30am 11.1 11.3 10.5 96 0.3 CALM 0 6 0 3 1016.3 1016.2 0.0
01/01:23am 11.2 10.7 10.6 96 0.3 SW 4 6 2 3 1016.5 1016.4 0.0
01/01:00am 11.1 10.2 10.5 96 0.3 NNW 6 11 3 6 1016.6 1016.5 0.0
01/12:30am 10.5 9.1 9.6 94 0.5 SSW 7 9 4 5 1016.0 1015.9 0.0
01/12:00am 11.3 10.3 10.2 93 0.6 W 6 7 3 4 1015.9 1015.8 0.0
 
Date/Time
CST
Temp
°C
App
Temp
°C
Dew
Point
°C
Rel
Hum
%
Delta-T
°C
Wind Press
QNH
hPa
Press
MSL
hPa
Rain since
9am
mm
Dir  Spd
km/h
Gust
km/h
Spd
kts
Gust
kts
30/11:30pm 11.7 10.2 10.4 92 0.7 W 9 11 5 6 1016.0 1015.9 0.0
30/11:00pm 12.1 10.6 10.5 90 0.8 W 9 9 5 5 1016.1 1016.0 0.0
30/10:30pm 12.9 11.1 11.0 88 1.0 W 11 19 6 10 1015.7 1015.6 0.0
30/10:00pm 13.2 11.5 11.3 88 1.0 W 11 13 6 7 1015.9 1015.8 0.0
30/09:30pm 12.6 11.1 10.5 87 1.1 W 9 13 5 7 1015.8 1015.7 0.0
30/09:00pm 12.7 11.7 10.4 86 1.2 NW 6 9 3 5 1015.6 1015.5 0.0
30/08:30pm 13.9 13.9 11.1 83 1.5 SW 2 7 1 4 1014.9 1014.9 0.0
30/08:00pm 14.5 13.5 10.9 79 1.9 W 7 9 4 5 1014.6 1014.6 0.0
30/07:30pm 15.1 13.3 10.7 75 2.3 W 11 13 6 7 1014.5 1014.5 0.0
30/07:00pm 15.5 13.3 10.7 73 2.5 W 13 19 7 10 1014.1 1014.1 0.0
30/06:30pm 14.8 13.1 10.0 73 2.5 WSW 9 11 5 6 1013.6 1013.6 0.0
30/06:00pm 16.4 14.3 9.8 65 3.5 W 11 17 6 9 1012.5 1012.5 0.0
30/05:30pm 16.4 13.5 9.8 65 3.5 WSW 15 22 8 12 1012.8 1012.8 0.0
30/05:00pm 16.8 13.0 9.7 63 3.7 WSW 20 28 11 15 1012.7 1012.7 0.0
30/04:30pm 17.2 12.8 9.1 59 4.2 WSW 22 32 12 17 1012.2 1012.2 0.0
30/04:00pm 17.4 13.0 9.1 58 4.3 WSW 22 35 12 19 1012.1 1012.1 0.0
30/03:30pm 17.6 11.9 8.5 55 4.7 WSW 28 35 15 19 1012.0 1012.0 0.0
30/03:00pm 17.7 11.7 8.8 56 4.6 WSW 30 43 16 23 1011.9 1011.9 0.0
30/02:30pm 18.4 12.1 8.9 54 5.0 W 32 46 17 25 1012.0 1012.0 0.0
30/02:00pm 18.5 12.0 8.2 51 5.3 W 32 41 17 22 1011.7 1011.7 0.0
30/01:30pm 18.9 13.2 9.7 55 4.9 W 30 43 16 23 1011.7 1011.7 0.0
30/01:00pm 17.7 12.8 8.6 55 4.7 W 24 39 13 21 1011.6 1011.6 0.0
30/12:30pm 17.9 13.7 9.8 59 4.3 WSW 22 32 12 17 1011.8 1011.8 0.0
30/12:00pm 17.7 13.1 9.6 59 4.3 WSW 24 35 13 19 1011.9 1011.9 0.0
30/11:30am 17.0 12.5 9.9 63 3.7 W 24 33 13 18 1012.3 1012.3 0.0
30/11:00am 16.1 11.0 9.3 64 3.5 W 26 32 14 17 1012.4 1012.4 0.0
30/10:30am 16.5 12.2 9.4 63 3.7 W 22 30 12 16 1012.7 1012.7 0.0
30/10:00am 15.7 11.1 9.8 68 3.1 W 24 32 13 17 1012.8 1012.8 0.0
30/09:30am 16.5 12.8 11.6 73 2.7 WSW 22 33 12 18 1012.9 1012.9 0.0
30/09:00am 15.7 11.3 11.7 77 2.2 WSW 26 33 14 18 1013.0 1013.0 11.4
30/08:40am 15.4 12.4 11.8 79 1.9 WSW 19 26 10 14 1013.0 1013.0 11.4
30/08:30am 15.0 12.0 12.0 82 1.6 W 19 24 10 13 1012.8 1012.8 11.4
30/08:00am 14.7 12.4 13.1 90 0.9 W 17 22 9 12 1012.6 1012.6 11.4
30/07:30am 13.9 12.0 13.0 94 0.5 NW 15 22 8 12 1012.5 1012.5 11.4
30/07:00am 13.4 11.8 12.8 96 0.3 NW 13 17 7 9 1012.4 1012.4 11.4
30/06:30am 13.2 11.5 12.6 96 0.3 NW 13 19 7 10 1012.2 1012.2 11.4
30/06:00am 13.3 12.1 12.7 96 0.3 NW 11 15 6 8 1012.2 1012.2 11.2
30/05:30am 13.2 11.9 12.6 96 0.3 NNW 11 13 6 7 1011.9 1011.9 11.0
30/05:00am 13.2 12.0 12.7 97 0.3 NNW 11 15 6 8 1011.4 1011.4 11.0
30/04:30am 13.0 12.5 12.5 97 0.3 N 7 11 4 6 1011.2 1011.2 11.0
30/04:00am 12.7 11.7 12.2 97 0.3 N 9 13 5 7 1011.2 1011.2 11.0
30/03:30am 12.8 11.8 12.3 97 0.3 N 9 13 5 7 1011.1 1011.1 11.0
30/03:00am 12.8 11.4 12.3 97 0.3 N 11 15 6 8 1011.5 1011.5 11.0
30/02:30am 13.0 11.7 12.5 97 0.3 N 11 13 6 7 1011.9 1011.9 11.0
30/02:09am 13.1 12.2 12.6 97 0.3 N 9 11 5 6 1012.2 1012.2 11.0
30/02:00am 13.3 12.8 12.8 97 0.3 N 7 11 4 6 1012.5 1012.5 11.0
30/01:30am 13.4 12.6 12.9 97 0.3 NNE 9 13 5 7 1013.0 1013.0 10.8
30/01:06am 13.4 12.6 12.8 96 0.3 N 9 13 5 7 1013.3 1013.3 10.6
30/01:00am 13.4 12.2 12.8 96 0.3 NNE 11 13 6 7 1013.3 1013.3 10.6
30/12:49am 13.2 11.5 12.6 96 0.3 NNE 13 19 7 10 1013.3 1013.3 10.6
30/12:30am 13.3 11.7 12.7 96 0.3 N 13 19 7 10 1013.9 1013.9 10.0
30/12:00am 13.4 10.7 12.8 96 0.3 N 19 24 10 13 1014.1 1014.1 9.6
 
Date/Time
CST
Temp
°C
App
Temp
°C
Dew
Point
°C
Rel
Hum
%
Delta-T
°C
Wind Press
QNH
hPa
Press
MSL
hPa
Rain since
9am
mm
Dir  Spd
km/h
Gust
km/h
Spd
kts
Gust
kts
29/11:30pm 13.3 10.9 12.7 96 0.3 N 17 24 9 13 1014.1 1014.1 9.2
29/11:00pm 13.3 11.3 12.7 96 0.3 NE 15 20 8 11 1014.2 1014.2 8.6
29/10:51pm 13.2 10.8 12.6 96 0.3 NE 17 20 9 11 1014.3 1014.3 8.6
29/10:30pm 13.3 11.6 12.5 95 0.4 NE 13 17 7 9 1014.5 1014.5 8.2
29/10:00pm 13.5 11.9 12.7 95 0.4 NE 13 19 7 10 1015.0 1015.0 7.6
29/09:30pm 13.6 12.4 12.7 94 0.5 NE 11 17 6 9 1015.6 1015.5 6.8
29/09:00pm 13.7 13.2 12.6 93 0.6 NNW 7 11 4 6 1015.9 1015.8 5.6
29/08:30pm 13.8 12.1 12.5 92 0.7 NNE 13 15 7 8 1015.8 1015.7 4.2
29/08:00pm 14.1 13.6 12.7 91 0.8 NW 7 11 4 6 1016.0 1015.9 1.8
29/07:30pm 14.5 13.7 12.9 90 0.9 WNW 9 11 5 6 1015.8 1015.7 0.6
29/07:00pm 14.8 13.4 12.3 85 1.4 W 11 17 6 9 1015.5 1015.4 0.0
29/06:30pm 15.8 13.3 11.2 74 2.5 W 15 22 8 12 1015.1 1015.1 0.0
29/06:00pm 16.5 11.8 10.6 68 3.1 W 26 35 14 19 1015.0 1015.0 0.0
29/05:30pm 17.3 11.2 9.7 61 4.0 W 32 39 17 21 1014.5 1014.5 0.0
29/05:00pm 19.8 13.9 7.5 45 6.3 W 28 41 15 22 1013.8 1013.8 0.0
29/04:30pm 23.2 18.6 3.7 28 9.5 NNW 17 35 9 19 1013.3 1013.3 0.0
29/04:00pm 23.7 17.5 2.0 24 10.3 N 24 35 13 19 1013.4 1013.4 0.0
29/03:30pm 24.4 18.8 1.3 22 10.8 NNW 20 30 11 16 1013.5 1013.5 0.0
29/03:00pm 24.5 17.8 1.4 22 10.9 N 26 37 14 20 1013.7 1013.7 0.0
29/02:30pm 24.2 17.9 1.8 23 10.6 NNW 24 37 13 20 1014.2 1014.2 0.0
29/02:00pm 23.8 17.1 1.4 23 10.5 N 26 35 14 19 1014.7 1014.7 0.0
29/01:30pm 23.7 17.1 2.0 24 10.3 N 26 37 14 20 1015.6 1015.5 0.0
29/01:00pm 23.0 16.4 1.9 25 9.9 N 26 35 14 19 1016.4 1016.3 0.0
29/12:30pm 22.5 15.6 2.6 27 9.4 N 28 37 15 20 1017.1 1017.0 0.0
29/12:00pm 21.6 14.7 2.8 29 8.9 NNE 28 37 15 20 1017.7 1017.6 0.0
29/11:30am 21.4 14.9 2.6 29 8.8 NNE 26 33 14 18 1018.3 1018.2 0.0
29/11:00am 21.3 14.9 3.0 30 8.7 NNE 26 35 14 19 1018.9 1018.9 0.0
29/10:30am 20.7 13.9 3.0 31 8.3 NNE 28 37 15 20 1019.1 1019.1 0.0
29/10:00am 20.1 13.3 2.9 32 8.1 N 28 37 15 20 1019.5 1019.5 0.0
29/09:30am 19.2 12.8 3.0 34 7.5 NNE 26 32 14 17 1019.8 1019.8 0.0
29/09:00am 17.7 11.6 2.8 37 6.8 NNE 24 33 13 18 1020.1 1020.1 0.0
29/08:30am 16.4 10.5 3.8 43 5.8 N 24 30 13 16 1020.2 1020.2 0.0
29/08:00am 14.9 9.2 3.1 45 5.3 NNE 22 33 12 18 1019.8 1019.8 0.0
29/07:30am 13.5 8.4 3.3 50 4.6 NNE 19 24 10 13 1019.8 1019.8 0.0
29/07:00am 12.5 7.4 2.9 52 4.2 NNE 19 26 10 14 1019.8 1019.8 0.0
29/06:30am 11.2 7.3 3.3 58 3.5 NNE 13 17 7 9 1019.8 1019.8 0.0
29/06:00am 10.3 6.3 2.9 60 3.2 NE 13 15 7 8 1019.6 1019.6 0.0
29/05:30am 10.4 6.8 2.7 59 3.3 NE 11 13 6 7 1019.7 1019.7 0.0
29/05:00am 10.8 7.2 2.9 58 3.4 NE 11 15 6 8 1019.7 1019.7 0.0
29/04:30am 11.1 7.8 2.7 56 3.6 NE 9 11 5 6 1019.8 1019.8 0.0
29/04:00am 11.4 7.7 2.4 54 3.9 NE 11 15 6 8 1019.2 1019.2 0.0
29/03:30am 11.4 7.3 2.4 54 3.9 NNE 13 15 7 8 1019.4 1019.4 0.0
29/03:00am 11.8 7.7 2.5 53 4.0 NE 13 19 7 10 1019.5 1019.5 0.0
29/02:30am 12.1 7.3 2.6 52 4.1 NNE 17 22 9 12 1019.8 1019.8 0.0
29/02:00am 11.2 7.2 3.0 57 3.6 NNE 13 15 7 8 1020.1 1020.1 0.0
29/01:30am 11.0 7.4 3.1 58 3.4 NE 11 13 6 7 1020.2 1020.2 0.0
29/01:00am 11.8 7.8 2.8 54 3.9 NNE 13 15 7 8 1020.8 1020.8 0.0
29/12:30am 12.0 8.0 3.0 54 3.9 NE 13 15 7 8 1021.0 1021.0 0.0
29/12:00am 12.5 8.2 3.2 53 4.1 NE 15 19 8 10 1021.0 1021.0 0.0
 
Date/Time
CST
Temp
°C
App
Temp
°C
Dew
Point
°C
Rel
Hum
%
Delta-T
°C
Wind Press
QNH
hPa
Press
MSL
hPa
Rain since
9am
mm
Dir  Spd
km/h
Gust
km/h
Spd
kts
Gust
kts
28/11:30pm 11.8 8.0 3.8 58 3.6 NE 13 15 7 8 1020.8 1020.8 0.0
28/11:00pm 11.7 8.2 3.7 58 3.6 NNE 11 13 6 7 1021.3 1021.3 0.0
28/10:30pm 11.7 8.2 3.7 58 3.5 N 11 13 6 7 1021.6 1021.6 0.0
28/10:00pm 12.6 9.5 3.6 54 4.0 NNE 9 11 5 6 1021.6 1021.6 0.0
28/09:30pm 13.5 10.3 3.3 50 4.6 NE 9 11 5 6 1021.5 1021.5 0.0
28/09:00pm 13.8 10.7 3.6 50 4.6 NNE 9 13 5 7 1021.7 1021.7 0.0
28/08:30pm 14.7 11.1 3.2 46 5.2 NNE 11 15 6 8 1021.7 1021.7 0.0
28/08:00pm 16.1 12.2 3.2 42 5.9 ENE 13 17 7 9 1021.5 1021.5 0.0
28/07:30pm 15.8 11.9 3.3 43 5.7 E 13 17 7 9 1021.1 1021.1 0.0
28/07:00pm 16.4 12.9 3.5 42 5.9 ENE 11 15 6 8 1021.1 1021.1 0.0
28/06:30pm 17.6 13.6 2.8 37 6.8 ENE 13 19 7 10 1021.1 1021.1 0.0
28/06:00pm 18.6 13.8 2.4 34 7.4 ENE 17 22 9 12 1021.2 1021.2 0.0
28/05:30pm 19.7 14.5 2.6 32 7.9 ENE 19 24 10 13 1021.2 1021.2 0.0
28/05:00pm 20.2 14.1 2.5 31 8.2 NE 24 33 13 18 1021.4 1021.4 0.0
28/04:30pm 20.5 15.2 2.8 31 8.3 NE 20 24 11 13 1021.3 1021.3 0.0
28/04:00pm 20.6 14.7 2.0 29 8.6 NE 22 32 12 17 1021.2 1021.2 0.0
28/03:30pm 20.8 15.0 2.1 29 8.6 NE 22 32 12 17 1021.4 1021.4 0.0
28/03:00pm 21.0 15.7 3.2 31 8.4 NE 20 30 11 16 1021.8 1021.8 0.0
28/02:30pm 20.6 15.3 2.9 31 8.3 NE 20 32 11 17 1022.1 1022.1 0.0
28/02:00pm 20.0 14.7 2.8 32 8.0 NE 20 33 11 18 1022.6 1022.6 0.0
28/01:30pm 20.2 14.5 3.0 32 8.0 NNE 22 35 12 19 1023.2 1023.2 0.0
28/01:00pm 19.6 14.4 3.3 34 7.7 NE 20 28 11 15 1023.8 1023.8 0.0
28/12:30pm 19.8 14.2 3.5 34 7.7 NE 22 30 12 16 1024.2 1024.2 0.0
28/12:00pm 19.3 14.3 3.5 35 7.4 NNE 19 28 10 15 1024.9 1024.9 0.0
28/11:30am 18.4 13.2 3.5 37 6.9 NNE 20 30 11 16 1025.5 1025.5 0.0

Other formats

Comma delimited format used in spreadsheet applications
http://www.bom.gov.au/fwo/IDS60801/IDS60801.95687.axf

JavaScript Object Notation format (JSON) in row-major order
http://www.bom.gov.au/fwo/IDS60801/IDS60801.95687.json

Data quality

Most of these data are generated automatically and are frequently updated. Quality checks on data are not normally performed. It is possible for incorrect values to appear. Refer to information at About Latest Weather Observations and please check the disclaimer before using these data.